Charles B. Wheeler Downtown Airport Kansas City US
ICAO: KMKC
IATA: MKC
Category: Medium
Scheduled Services: No

Elevation: 759 ft
TransAlt. 18000 ft.

Airport Communications:
APP/DEP:119
ATIS:120.75
CLNC DEL:121.9
GND:121.9
COLUMBIA RDO:122.6
DOWNTOWN TWR:133.3
UNICOM:122.95

KMKC Zoom In..

Runways:

(A) RW 01 length 6827 ft width 150 ft
---- / hdg 8

(B) RW 03 length 5050 ft width 100 ft
ILS 111.75 / hdg 33

(C) RW 19 length 6827 ft width 150 ft
ILS 109.90 / hdg 188

(D) RW 21 length 5050 ft width 100 ft
---- / hdg 213

Location; KMKC
Day. 04 / Time. 00.54 Zulu
* Altimeter: 30.08
* Temperature: 21° c. 69.8°f.
* Wind from: 350° Speed 10 kn.
Dewpoint: 10° c.
Visibility: 10 Statute Miles.
Clouds: Clear (automated report).

KMKC 040054Z 35010KT 10SM CLR 21/10 A3008 RMK AO2 SLP181 T02110100

Going to: --> -->


Wind From 350°
Speed 10 kn.

 
 
jpsmedia worldairports.se 2020   terms of use